createdAt,value
2022-12-03T00:02:24.467Z,13.70
2022-12-03T00:04:52.062Z,14.13
2022-12-03T00:07:19.472Z,13.05
2022-12-03T00:09:46.708Z,12.35
2022-12-03T00:12:13.967Z,11.75
2022-12-03T00:14:44.647Z,12.65
2022-12-03T00:17:12.316Z,11.55
2022-12-03T00:19:39.659Z,14.27
2022-12-03T00:22:06.918Z,12.45
2022-12-03T00:24:34.181Z,13.15
2022-12-03T00:27:01.438Z,11.95
2022-12-03T00:29:28.688Z,13.02
2022-12-03T00:31:55.887Z,15.02
2022-12-03T00:34:26.383Z,11.52
2022-12-03T00:36:53.669Z,15.02
2022-12-03T00:39:20.900Z,14.85
2022-12-03T00:41:48.173Z,14.48
2022-12-03T00:44:15.518Z,14.15
2022-12-03T00:46:42.788Z,11.35
2022-12-03T00:49:10.134Z,12.73
2022-12-03T00:51:37.350Z,13.30
2022-12-03T00:54:04.592Z,11.25
2022-12-03T00:56:31.846Z,12.38
2022-12-03T00:58:59.066Z,12.68
2022-12-03T01:01:26.594Z,12.55
2022-12-03T01:03:53.880Z,13.98
2022-12-03T01:06:21.098Z,12.73
2022-12-03T01:08:48.327Z,12.75
2022-12-03T01:11:34.137Z,12.00
2022-12-03T01:14:01.766Z,11.40
2022-12-03T01:16:29.041Z,11.35
2022-12-03T01:18:56.368Z,13.32
2022-12-03T01:21:23.612Z,7.63
2022-12-03T01:23:50.876Z,11.13
2022-12-03T01:26:18.105Z,10.30
2022-12-03T01:28:45.341Z,10.43
2022-12-03T01:31:34.052Z,9.75
2022-12-03T01:34:01.402Z,10.60
2022-12-03T01:36:28.707Z,10.07
2022-12-03T01:38:55.961Z,10.52
2022-12-03T01:41:24.539Z,9.98
2022-12-03T01:43:52.723Z,9.52
2022-12-03T01:46:22.052Z,8.90
2022-12-03T01:48:50.209Z,8.15
2022-12-03T01:51:17.575Z,7.53
2022-12-03T01:53:45.183Z,8.13
2022-12-03T01:56:16.215Z,7.15
2022-12-03T01:58:43.764Z,8.40
2022-12-03T02:01:13.324Z,7.05
2022-12-03T02:03:40.734Z,7.47
2022-12-03T02:06:18.848Z,6.85
2022-12-03T02:08:46.951Z,7.68
2022-12-03T02:11:17.238Z,7.30
2022-12-03T02:13:45.025Z,7.97
2022-12-03T02:16:12.371Z,7.13
2022-12-03T02:18:39.897Z,7.45
2022-12-03T02:21:25.976Z,6.90
2022-12-03T02:24:02.386Z,7.03
2022-12-03T02:26:29.956Z,6.43
2022-12-03T02:28:57.700Z,6.32
2022-12-03T02:31:25.102Z,6.07
2022-12-03T02:33:52.504Z,6.28
2022-12-03T02:36:19.783Z,6.75
2022-12-03T02:38:48.451Z,7.38
2022-12-03T02:41:37.318Z,7.65
2022-12-03T02:44:05.660Z,6.40
2022-12-03T02:46:33.521Z,6.25
2022-12-03T02:49:01.125Z,6.63
2022-12-03T02:51:28.584Z,6.50
2022-12-03T02:53:56.601Z,8.15
2022-12-03T02:56:25.456Z,7.03
2022-12-03T02:58:55.303Z,7.55
2022-12-03T03:01:22.647Z,7.50
2022-12-03T03:03:50.179Z,7.70
2022-12-03T03:06:18.721Z,8.35
2022-12-03T03:08:46.126Z,6.75
2022-12-03T03:11:13.460Z,7.38
2022-12-03T03:13:40.855Z,8.05
2022-12-03T03:16:09.040Z,7.40
2022-12-03T03:18:36.961Z,7.97
2022-12-03T03:21:04.830Z,7.75
2022-12-03T03:23:32.229Z,8.52
2022-12-03T03:25:59.504Z,8.98
2022-12-03T03:28:27.443Z,7.90
2022-12-03T03:30:54.818Z,8.18
2022-12-03T03:33:22.329Z,7.90
2022-12-03T03:35:49.978Z,8.45
2022-12-03T03:38:19.174Z,8.57
2022-12-03T03:40:47.307Z,10.50
2022-12-03T03:43:14.698Z,8.23
2022-12-03T03:45:42.429Z,8.88
2022-12-03T03:48:09.770Z,7.18
2022-12-03T03:50:37.252Z,7.43
2022-12-03T03:53:05.226Z,4.82
2022-12-03T03:55:32.845Z,6.95
2022-12-03T03:58:00.340Z,7.88
2022-12-03T04:00:27.798Z,9.45
2022-12-03T04:02:55.054Z,7.07
2022-12-03T04:05:23.017Z,7.90
2022-12-03T04:07:50.338Z,7.03
2022-12-03T04:10:36.209Z,7.10
2022-12-03T04:13:03.455Z,6.25
2022-12-03T04:15:30.750Z,6.47
2022-12-03T04:18:16.541Z,6.90
2022-12-03T04:20:43.879Z,6.05
2022-12-03T04:23:11.120Z,5.55
2022-12-03T04:25:57.331Z,6.18
2022-12-03T04:28:43.153Z,4.75
2022-12-03T04:31:29.438Z,4.78
2022-12-03T04:34:15.620Z,4.88
2022-12-03T04:36:42.878Z,5.28
2022-12-03T04:39:10.107Z,4.82
2022-12-03T04:41:37.348Z,5.35
2022-12-03T04:44:23.168Z,4.35
2022-12-03T04:46:50.366Z,5.70
2022-12-03T04:49:17.600Z,5.38
2022-12-03T04:51:44.888Z,5.10
2022-12-03T04:54:12.257Z,4.57
2022-12-03T04:56:39.485Z,5.07
2022-12-03T04:59:10.045Z,4.38
2022-12-03T05:01:40.070Z,5.10
2022-12-03T05:04:07.738Z,6.00
2022-12-03T05:06:34.981Z,4.25
2022-12-03T05:09:02.228Z,4.53
2022-12-03T05:11:29.482Z,4.65
2022-12-03T05:13:56.832Z,5.00
2022-12-03T05:16:24.105Z,4.70
2022-12-03T05:18:51.397Z,5.78
2022-12-03T05:21:18.622Z,5.30
2022-12-03T05:23:45.889Z,5.68
2022-12-03T05:26:13.137Z,4.75
2022-12-03T05:28:40.385Z,6.32
2022-12-03T05:31:07.779Z,4.65
2022-12-03T05:33:39.475Z,5.05
2022-12-03T05:36:10.322Z,4.43
2022-12-03T05:38:37.639Z,5.05
2022-12-03T05:41:24.878Z,4.22
2022-12-03T05:43:52.120Z,2.33
2022-12-03T05:46:19.571Z,4.00
2022-12-03T05:48:46.910Z,3.78
2022-12-03T05:51:14.158Z,3.50
2022-12-03T05:53:41.404Z,3.40
2022-12-03T05:56:08.748Z,3.30
2022-12-03T05:58:36.060Z,3.85
2022-12-03T06:01:03.275Z,3.67
2022-12-03T06:03:30.741Z,3.53
2022-12-03T06:05:58.147Z,4.28
2022-12-03T06:08:25.433Z,3.50
2022-12-03T06:10:52.718Z,3.95
2022-12-03T06:13:20.152Z,3.90
2022-12-03T06:15:47.479Z,4.20
2022-12-03T06:18:14.818Z,4.03
2022-12-03T06:20:42.091Z,3.63
2022-12-03T06:23:09.433Z,3.70
2022-12-03T06:25:36.910Z,3.78
2022-12-03T06:28:04.227Z,3.97
2022-12-03T06:30:31.473Z,3.78
2022-12-03T06:32:58.732Z,4.15
2022-12-03T06:35:25.968Z,4.25
2022-12-03T06:37:53.266Z,3.80
2022-12-03T06:40:20.560Z,4.15
2022-12-03T06:42:47.778Z,4.55
2022-12-03T06:45:15.018Z,4.10
2022-12-03T06:47:42.282Z,4.07
2022-12-03T06:50:09.652Z,3.83
2022-12-03T06:52:37.147Z,4.78
2022-12-03T06:55:04.510Z,4.60
2022-12-03T06:57:31.778Z,5.47
2022-12-03T06:59:59.114Z,4.30
2022-12-03T07:02:26.479Z,4.40
2022-12-03T07:04:54.176Z,4.93
2022-12-03T07:07:21.801Z,5.35
2022-12-03T07:09:49.086Z,5.10
2022-12-03T07:12:16.345Z,4.72
2022-12-03T07:14:43.681Z,5.38
2022-12-03T07:17:10.937Z,5.70
2022-12-03T07:19:38.177Z,4.72
2022-12-03T07:22:05.398Z,4.53
2022-12-03T07:24:32.724Z,5.30
2022-12-03T07:26:59.937Z,4.82
2022-12-03T07:29:27.252Z,5.75
2022-12-03T07:31:54.627Z,5.57
2022-12-03T07:34:21.869Z,6.07
2022-12-03T07:36:49.140Z,5.72
2022-12-03T07:39:16.440Z,6.55
2022-12-03T07:41:43.684Z,6.45
2022-12-03T07:44:14.602Z,7.88
2022-12-03T07:46:42.576Z,8.18
2022-12-03T07:49:09.916Z,8.05
2022-12-03T07:51:37.247Z,8.15
2022-12-03T07:54:04.723Z,7.63
2022-12-03T07:56:31.952Z,8.50
2022-12-03T07:58:59.199Z,10.02
2022-12-03T08:01:26.579Z,8.45
2022-12-03T08:03:53.976Z,10.13
2022-12-03T08:06:21.209Z,9.30
2022-12-03T08:08:48.456Z,9.95
2022-12-03T08:11:15.954Z,10.25
2022-12-03T08:13:43.207Z,8.55
2022-12-03T08:16:20.795Z,9.75
2022-12-03T08:18:48.666Z,9.68
2022-12-03T08:21:17.657Z,9.82
2022-12-03T08:23:45.058Z,9.80
2022-12-03T08:26:15.357Z,10.73
2022-12-03T08:28:43.008Z,9.40
2022-12-03T08:31:13.801Z,11.27
2022-12-03T08:33:41.949Z,9.88
2022-12-03T08:36:09.444Z,10.32
2022-12-03T08:38:36.752Z,11.73
2022-12-03T08:41:04.056Z,11.35
2022-12-03T08:43:33.181Z,10.38
2022-12-03T08:46:00.568Z,11.77
2022-12-03T08:48:42.786Z,11.23
2022-12-03T08:51:25.636Z,9.88
2022-12-03T08:54:01.099Z,11.18
2022-12-03T08:56:29.822Z,12.70
2022-12-03T08:58:59.333Z,11.45
2022-12-03T09:01:32.845Z,11.70
2022-12-03T09:04:06.394Z,12.00
2022-12-03T09:06:33.741Z,11.77
2022-12-03T09:09:06.357Z,10.98
2022-12-03T09:11:34.148Z,11.35
2022-12-03T09:14:01.948Z,13.23
2022-12-03T09:16:29.212Z,11.52
2022-12-03T09:18:56.484Z,13.10
2022-12-03T09:21:23.718Z,13.23
2022-12-03T09:23:50.937Z,12.95
2022-12-03T09:26:18.179Z,9.70
2022-12-03T09:28:46.445Z,12.32
2022-12-03T09:31:13.746Z,13.48
2022-12-03T09:33:40.986Z,11.52
2022-12-03T09:36:08.338Z,13.52
2022-12-03T09:38:35.664Z,11.48
2022-12-03T09:41:03.002Z,11.95
2022-12-03T09:44:02.888Z,13.88
2022-12-03T09:46:19.605Z,12.32
2022-12-03T09:48:47.256Z,13.75
2022-12-03T09:51:15.182Z,12.50
2022-12-03T09:53:42.488Z,13.85
2022-12-03T09:56:13.087Z,13.35
2022-12-03T09:58:40.457Z,12.65
2022-12-03T10:01:11.527Z,13.13
2022-12-03T10:03:40.096Z,14.15
2022-12-03T10:06:07.589Z,14.23
2022-12-03T10:08:34.874Z,14.40
2022-12-03T10:11:02.177Z,12.93
2022-12-03T10:13:30.719Z,13.63
2022-12-03T10:15:59.254Z,15.57
2022-12-03T10:18:30.834Z,12.70
2022-12-03T10:20:58.565Z,14.45
2022-12-03T10:23:27.132Z,14.02
2022-12-03T10:25:54.562Z,14.13
2022-12-03T10:28:48.043Z,14.60
2022-12-03T10:31:15.625Z,13.77
2022-12-03T10:33:44.960Z,14.18
2022-12-03T10:36:18.191Z,14.85
2022-12-03T10:38:45.487Z,13.40
2022-12-03T10:41:39.208Z,13.38
2022-12-03T10:44:12.515Z,12.90
2022-12-03T10:46:39.929Z,15.23
2022-12-03T10:49:17.589Z,15.15
2022-12-03T10:51:45.984Z,14.98
2022-12-03T10:54:23.782Z,13.45
2022-12-03T10:56:52.310Z,13.15
2022-12-03T10:59:21.668Z,13.43
2022-12-03T11:01:49.431Z,12.65
2022-12-03T11:04:34.049Z,13.70
2022-12-03T11:07:02.973Z,14.35
2022-12-03T11:09:31.942Z,11.80
2022-12-03T11:12:08.726Z,15.05
2022-12-03T11:14:56.853Z,14.05
2022-12-03T11:17:40.800Z,13.90
2022-12-03T11:20:11.828Z,14.40
2022-12-03T11:22:40.803Z,14.25
2022-12-03T11:25:28.367Z,15.52
2022-12-03T11:28:13.884Z,14.75
2022-12-03T11:31:01.487Z,13.43
2022-12-03T11:33:33.119Z,15.07
2022-12-03T11:36:06.187Z,12.95
2022-12-03T11:38:47.344Z,13.88
2022-12-03T11:41:18.066Z,13.85
2022-12-03T11:43:56.891Z,14.07
2022-12-03T11:46:25.607Z,16.10
2022-12-03T11:48:54.165Z,14.95
2022-12-03T11:51:23.077Z,14.40
2022-12-03T11:53:51.148Z,16.20
2022-12-03T11:56:20.135Z,17.00
2022-12-03T11:58:48.361Z,15.57
2022-12-03T12:01:16.526Z,15.43
2022-12-03T12:03:48.352Z,15.95
2022-12-03T12:06:20.589Z,16.48
2022-12-03T12:08:50.575Z,18.05
2022-12-03T12:11:18.741Z,14.20
2022-12-03T12:13:45.986Z,16.00
2022-12-03T12:16:13.396Z,19.42
2022-12-03T12:18:44.521Z,16.08
2022-12-03T12:21:30.918Z,15.60
2022-12-03T12:23:58.131Z,15.13
2022-12-03T12:26:25.389Z,18.48
2022-12-03T12:28:52.611Z,15.93
2022-12-03T12:31:19.918Z,16.02
2022-12-03T12:33:47.219Z,17.70
2022-12-03T12:36:14.764Z,15.93
2022-12-03T12:38:42.605Z,16.77
2022-12-03T12:41:10.857Z,16.70
2022-12-03T12:43:39.626Z,16.90
2022-12-03T12:46:45.945Z,18.35
2022-12-03T12:49:01.322Z,16.92
2022-12-03T12:51:28.628Z,15.45
2022-12-03T12:53:58.012Z,17.33
2022-12-03T12:56:32.129Z,16.23
2022-12-03T12:59:02.152Z,16.42
2022-12-03T13:01:30.713Z,16.17
2022-12-03T13:03:58.394Z,15.50
2022-12-03T13:06:29.555Z,17.75
2022-12-03T13:08:57.507Z,16.38
2022-12-03T13:11:45.868Z,17.17
2022-12-03T13:14:18.988Z,16.92
2022-12-03T13:16:47.944Z,14.57
2022-12-03T13:19:25.486Z,17.67
2022-12-03T13:21:54.613Z,16.73
2022-12-03T13:24:33.995Z,18.30
2022-12-03T13:27:05.935Z,16.67
2022-12-03T13:29:33.186Z,15.95
2022-12-03T13:32:00.847Z,17.38
2022-12-03T13:34:29.572Z,16.35
2022-12-03T13:36:58.443Z,15.50
2022-12-03T13:39:29.153Z,16.48
2022-12-03T13:42:15.340Z,16.35
2022-12-03T13:44:45.132Z,14.95
2022-12-03T13:47:14.636Z,19.98
2022-12-03T13:49:41.956Z,17.02
2022-12-03T13:52:13.809Z,15.98
2022-12-03T13:54:41.140Z,16.90
2022-12-03T13:57:08.342Z,15.68
2022-12-03T13:59:35.833Z,17.55
2022-12-03T14:02:03.257Z,15.82
2022-12-03T14:04:30.509Z,16.73
2022-12-03T14:06:57.708Z,16.48
2022-12-03T14:09:24.955Z,16.20
2022-12-03T14:12:10.785Z,16.13
2022-12-03T14:14:38.034Z,15.75
2022-12-03T14:17:05.284Z,15.80
2022-12-03T14:19:32.892Z,15.35
2022-12-03T14:22:00.379Z,16.45
2022-12-03T14:24:27.870Z,16.17
2022-12-03T14:26:55.085Z,16.20
2022-12-03T14:29:22.318Z,16.00
2022-12-03T14:31:49.548Z,16.75
2022-12-03T14:34:16.837Z,15.90
2022-12-03T14:36:44.448Z,14.68
2022-12-03T14:39:11.774Z,16.13
2022-12-03T14:41:57.550Z,17.98
2022-12-03T14:44:25.561Z,17.58
2022-12-03T14:46:56.806Z,16.95
2022-12-03T14:49:24.854Z,15.48
2022-12-03T14:51:52.149Z,16.35
2022-12-03T14:54:19.394Z,16.15
2022-12-03T14:56:46.631Z,18.50
2022-12-03T14:59:13.855Z,16.77
2022-12-03T15:01:41.169Z,15.70
2022-12-03T15:04:08.532Z,16.50
2022-12-03T15:06:35.815Z,16.70
2022-12-03T15:09:03.336Z,16.67
2022-12-03T15:11:30.627Z,16.52
2022-12-03T15:13:58.050Z,18.27
2022-12-03T15:16:25.429Z,18.02
2022-12-03T15:18:52.756Z,17.88
2022-12-03T15:21:20.036Z,19.05
2022-12-03T15:23:47.289Z,16.52
2022-12-03T15:26:14.710Z,19.33
2022-12-03T15:28:46.675Z,17.58
2022-12-03T15:31:15.584Z,17.23
2022-12-03T15:33:42.813Z,18.35
2022-12-03T15:36:10.508Z,19.73
2022-12-03T15:38:37.739Z,20.75
2022-12-03T15:41:21.580Z,20.65
2022-12-03T15:43:49.129Z,20.10
2022-12-03T15:46:16.423Z,21.08
2022-12-03T15:48:43.860Z,19.20
2022-12-03T15:51:11.125Z,19.88
2022-12-03T15:53:38.676Z,21.30
2022-12-03T15:56:05.986Z,19.05
2022-12-03T15:58:33.219Z,19.27
2022-12-03T16:01:00.476Z,18.75
2022-12-03T16:03:27.815Z,20.38
2022-12-03T16:05:55.182Z,20.25
2022-12-03T16:08:22.691Z,19.92
2022-12-03T16:10:50.057Z,18.55
2022-12-03T16:13:17.261Z,20.20
2022-12-03T16:15:44.978Z,22.42
2022-12-03T16:18:12.242Z,21.95
2022-12-03T16:20:39.478Z,23.42
2022-12-03T16:23:06.751Z,19.77
2022-12-03T16:25:34.050Z,24.30
2022-12-03T16:28:01.319Z,22.15
2022-12-03T16:30:28.601Z,20.85
2022-12-03T16:32:55.841Z,22.08
2022-12-03T16:35:23.110Z,20.77
2022-12-03T16:37:50.315Z,21.15
2022-12-03T16:40:17.564Z,20.55
2022-12-03T16:42:44.753Z,21.90
2022-12-03T16:45:12.015Z,21.65
2022-12-03T16:47:39.288Z,20.80
2022-12-03T16:50:08.124Z,20.55
2022-12-03T16:52:35.951Z,19.63
2022-12-03T16:55:03.277Z,19.33
2022-12-03T16:57:33.817Z,19.30
2022-12-03T17:00:01.736Z,21.83
2022-12-03T17:02:29.324Z,20.58
2022-12-03T17:04:56.635Z,23.30
2022-12-03T17:07:23.883Z,19.20
2022-12-03T17:09:51.241Z,20.70
2022-12-03T17:12:18.611Z,22.10
2022-12-03T17:14:45.934Z,20.60
2022-12-03T17:17:13.166Z,22.77
2022-12-03T17:19:40.402Z,20.00
2022-12-03T17:22:07.824Z,22.13
2022-12-03T17:24:35.062Z,21.90
2022-12-03T17:27:02.342Z,21.35
2022-12-03T17:29:29.567Z,22.65
2022-12-03T17:31:56.886Z,20.45
2022-12-03T17:34:24.182Z,20.02
2022-12-03T17:36:51.443Z,18.98
2022-12-03T17:39:18.649Z,18.15
2022-12-03T17:41:45.932Z,21.52
2022-12-03T17:44:17.969Z,19.70
2022-12-03T17:46:48.186Z,19.95
2022-12-03T17:49:15.386Z,20.17
2022-12-03T17:51:42.822Z,18.95
2022-12-03T17:54:10.034Z,21.70
2022-12-03T17:56:39.338Z,20.85
2022-12-03T17:59:06.558Z,18.80
2022-12-03T18:01:33.855Z,18.80
2022-12-03T18:04:01.152Z,19.58
2022-12-03T18:06:28.651Z,21.35
2022-12-03T18:08:55.907Z,18.10
2022-12-03T18:11:23.156Z,18.65
2022-12-03T18:13:50.380Z,19.35
2022-12-03T18:16:17.908Z,17.13
2022-12-03T18:18:45.133Z,18.77
2022-12-03T18:21:12.625Z,17.55
2022-12-03T18:23:40.264Z,20.23
2022-12-03T18:26:07.510Z,21.13
2022-12-03T18:28:34.802Z,25.33
2022-12-03T18:31:02.108Z,21.58
2022-12-03T18:33:29.508Z,21.45
2022-12-03T18:35:57.814Z,18.80
2022-12-03T18:38:28.236Z,19.05
2022-12-03T18:40:57.004Z,21.38
2022-12-03T18:43:24.435Z,19.98
2022-12-03T18:45:51.659Z,17.25
2022-12-03T18:48:20.019Z,21.15
2022-12-03T18:50:47.711Z,20.80
2022-12-03T18:53:19.450Z,21.30
2022-12-03T18:55:47.706Z,20.33
2022-12-03T18:58:15.116Z,19.17
2022-12-03T19:00:42.782Z,19.75
2022-12-03T19:03:10.842Z,18.55
2022-12-03T19:05:38.146Z,19.75
2022-12-03T19:08:14.053Z,22.65
2022-12-03T19:10:42.304Z,17.63
2022-12-03T19:13:10.053Z,24.73
2022-12-03T19:15:38.352Z,20.95
2022-12-03T19:18:07.645Z,18.38
2022-12-03T19:20:34.946Z,21.85
2022-12-03T19:23:02.362Z,21.40
2022-12-03T19:25:29.664Z,21.42
2022-12-03T19:27:57.191Z,16.63
2022-12-03T19:30:24.412Z,18.55
2022-12-03T19:32:51.908Z,17.20
2022-12-03T19:35:21.458Z,18.45
2022-12-03T19:37:49.709Z,16.50
2022-12-03T19:40:17.224Z,16.05
2022-12-03T19:42:44.558Z,18.23
2022-12-03T19:45:12.065Z,17.52
2022-12-03T19:47:39.447Z,16.80
2022-12-03T19:50:07.129Z,15.40
2022-12-03T19:52:36.470Z,16.88
2022-12-03T19:55:03.969Z,18.02
2022-12-03T19:57:31.224Z,19.10
2022-12-03T19:59:58.542Z,17.48
2022-12-03T20:02:26.085Z,16.08
2022-12-03T20:04:53.481Z,15.52
2022-12-03T20:07:23.609Z,15.70
2022-12-03T20:09:51.970Z,14.27
2022-12-03T20:12:19.593Z,17.10
2022-12-03T20:14:47.076Z,16.10
2022-12-03T20:17:14.327Z,15.85
2022-12-03T20:19:41.615Z,16.42
2022-12-03T20:22:08.909Z,15.50
2022-12-03T20:24:36.196Z,14.07
2022-12-03T20:27:03.481Z,14.13
2022-12-03T20:29:30.732Z,16.38
2022-12-03T20:31:58.070Z,15.55
2022-12-03T20:34:25.433Z,15.98
2022-12-03T20:36:52.707Z,15.68
2022-12-03T20:39:20.007Z,15.52
2022-12-03T20:41:47.326Z,16.63
2022-12-03T20:44:14.557Z,15.27
2022-12-03T20:46:41.891Z,15.75
2022-12-03T20:49:09.233Z,16.70
2022-12-03T20:51:36.936Z,15.00
2022-12-03T20:54:04.309Z,15.02
2022-12-03T20:56:33.259Z,14.23
2022-12-03T20:59:05.159Z,13.82
2022-12-03T21:01:32.617Z,14.93
2022-12-03T21:03:59.908Z,15.32
2022-12-03T21:06:30.806Z,14.40
2022-12-03T21:08:58.901Z,11.55
2022-12-03T21:11:27.092Z,11.10
2022-12-03T21:13:55.199Z,12.90
2022-12-03T21:16:45.687Z,11.13
2022-12-03T21:19:11.249Z,10.90
2022-12-03T21:21:38.498Z,11.30
2022-12-03T21:24:05.884Z,11.80
2022-12-03T21:26:41.500Z,12.60
2022-12-03T21:29:09.149Z,10.88
2022-12-03T21:31:38.410Z,10.88
2022-12-03T21:34:05.666Z,11.85
2022-12-03T21:36:33.045Z,10.38
2022-12-03T21:39:00.432Z,11.73
2022-12-03T21:41:27.696Z,12.85
2022-12-03T21:43:54.971Z,10.75
2022-12-03T21:47:10.471Z,12.55
2022-12-03T21:49:09.568Z,12.57
2022-12-03T21:51:36.929Z,11.70
2022-12-03T21:54:04.221Z,12.10
2022-12-03T21:56:33.056Z,11.98
2022-12-03T21:59:00.327Z,12.85
2022-12-03T22:01:27.664Z,13.05
2022-12-03T22:03:55.160Z,13.70
2022-12-03T22:06:22.563Z,13.18
2022-12-03T22:08:50.156Z,13.27
2022-12-03T22:11:18.714Z,13.10
2022-12-03T22:13:46.094Z,10.57
2022-12-03T22:16:14.764Z,10.88
2022-12-03T22:18:42.293Z,11.25
2022-12-03T22:21:10.749Z,9.68
2022-12-03T22:23:38.493Z,10.98
2022-12-03T22:26:07.437Z,9.32
2022-12-03T22:28:35.441Z,11.05
2022-12-03T22:31:06.745Z,9.52
2022-12-03T22:33:34.319Z,12.55
2022-12-03T22:36:02.520Z,9.50
2022-12-03T22:38:30.627Z,9.98
2022-12-03T22:40:58.167Z,10.30
2022-12-03T22:43:25.453Z,10.15
2022-12-03T22:45:56.157Z,10.77
2022-12-03T22:48:24.125Z,10.50
2022-12-03T22:50:52.294Z,12.15
2022-12-03T22:53:19.817Z,9.07
2022-12-03T22:55:54.834Z,9.85
2022-12-03T22:58:22.280Z,9.68
2022-12-03T23:00:49.545Z,9.32
2022-12-03T23:03:16.803Z,10.95
2022-12-03T23:05:44.259Z,8.98
2022-12-03T23:08:13.394Z,10.75
2022-12-03T23:10:43.810Z,10.00
2022-12-03T23:13:11.487Z,10.55
2022-12-03T23:15:39.191Z,9.98
2022-12-03T23:18:06.569Z,9.68
2022-12-03T23:20:33.962Z,10.38
2022-12-03T23:23:01.203Z,11.23
2022-12-03T23:25:28.599Z,9.00
2022-12-03T23:27:55.832Z,9.70
2022-12-03T23:30:23.229Z,9.45
2022-12-03T23:32:50.438Z,9.63
2022-12-03T23:35:17.681Z,8.98
2022-12-03T23:37:44.908Z,8.10
2022-12-03T23:40:13.052Z,9.45
2022-12-03T23:42:40.264Z,8.65
2022-12-03T23:45:07.966Z,8.77
2022-12-03T23:47:35.273Z,8.40
2022-12-03T23:50:02.802Z,10.05
2022-12-03T23:52:30.082Z,7.57
2022-12-03T23:54:57.325Z,10.02
2022-12-03T23:57:24.528Z,8.68
2022-12-03T23:59:51.910Z,8.40
